createdAt,value
2022-08-30T00:02:43.689Z,100.00
2022-08-30T00:05:11.123Z,100.00
2022-08-30T00:07:37.767Z,100.00
2022-08-30T00:10:04.870Z,100.00
2022-08-30T00:12:32.789Z,100.00
2022-08-30T00:14:59.629Z,100.00
2022-08-30T00:17:26.619Z,100.00
2022-08-30T00:19:56.008Z,100.00
2022-08-30T00:22:22.647Z,100.00
2022-08-30T00:24:49.693Z,100.00
2022-08-30T00:27:16.635Z,100.00
2022-08-30T00:29:43.338Z,100.00
2022-08-30T00:32:10.085Z,100.00
2022-08-30T00:34:36.658Z,100.00
2022-08-30T00:37:03.564Z,100.00
2022-08-30T00:39:30.148Z,100.00
2022-08-30T00:41:56.798Z,100.00
2022-08-30T00:44:24.227Z,100.00
2022-08-30T00:46:50.829Z,100.00
2022-08-30T00:49:18.042Z,100.00
2022-08-30T00:51:44.819Z,100.00
2022-08-30T00:54:12.419Z,100.00
2022-08-30T00:56:39.240Z,100.00
2022-08-30T00:59:07.849Z,100.00
2022-08-30T01:01:36.191Z,100.00
2022-08-30T01:04:05.851Z,100.00
2022-08-30T01:06:34.214Z,100.00
2022-08-30T01:09:03.000Z,100.00
2022-08-30T01:11:32.596Z,100.00
2022-08-30T01:13:59.918Z,100.00
2022-08-30T01:16:27.317Z,100.00
2022-08-30T01:19:17.436Z,100.00
2022-08-30T01:22:37.981Z,100.00
2022-08-30T01:25:08.216Z,100.00
2022-08-30T01:31:28.030Z,100.00
2022-08-30T01:33:54.635Z,100.00
2022-08-30T01:36:22.092Z,100.00
2022-08-30T01:41:37.077Z,100.00
2022-08-30T01:44:41.041Z,100.00
2022-08-30T01:47:07.732Z,100.00
2022-08-30T01:49:34.253Z,100.00
2022-08-30T01:52:01.596Z,100.00
2022-08-30T01:54:36.604Z,100.00
2022-08-30T01:57:20.963Z,100.00
2022-08-30T01:59:50.042Z,100.00
2022-08-30T02:02:43.940Z,100.00
2022-08-30T02:05:11.578Z,100.00
2022-08-30T02:10:48.985Z,100.00
2022-08-30T02:13:15.727Z,100.00
2022-08-30T02:15:42.458Z,100.00
2022-08-30T02:18:10.826Z,100.00
2022-08-30T02:20:39.555Z,100.00
2022-08-30T02:23:06.205Z,100.00
2022-08-30T02:25:32.778Z,100.00
2022-08-30T02:27:59.386Z,100.00
2022-08-30T02:30:26.766Z,100.00
2022-08-30T02:32:53.879Z,100.00
2022-08-30T02:35:20.618Z,100.00
2022-08-30T02:37:47.170Z,100.00
2022-08-30T02:40:14.144Z,100.00
2022-08-30T02:42:41.790Z,100.00
2022-08-30T02:45:08.887Z,100.00
2022-08-30T02:47:35.467Z,100.00
2022-08-30T02:50:07.098Z,100.00
2022-08-30T02:52:33.711Z,100.00
2022-08-30T02:55:00.254Z,100.00
2022-08-30T02:57:27.100Z,100.00
2022-08-30T02:59:53.669Z,100.00
2022-08-30T03:02:22.178Z,100.00
2022-08-30T03:04:49.368Z,100.00
2022-08-30T03:07:16.209Z,100.00
2022-08-30T03:09:42.830Z,100.00
2022-08-30T03:12:10.362Z,100.00
2022-08-30T03:14:38.835Z,100.00
2022-08-30T03:17:07.234Z,100.00
2022-08-30T03:19:54.238Z,100.00
2022-08-30T03:22:20.839Z,100.00
2022-08-30T03:24:47.339Z,100.00
2022-08-30T03:27:14.085Z,100.00
2022-08-30T03:29:40.820Z,100.00
2022-08-30T03:32:07.496Z,100.00
2022-08-30T03:34:34.257Z,100.00
2022-08-30T03:37:01.535Z,100.00
2022-08-30T03:39:28.876Z,100.00
2022-08-30T03:41:55.437Z,100.00
2022-08-30T03:44:22.083Z,100.00
2022-08-30T03:46:49.367Z,100.00
2022-08-30T03:49:16.184Z,100.00
2022-08-30T03:51:43.290Z,100.00
2022-08-30T03:54:10.115Z,100.00
2022-08-30T03:56:37.155Z,100.00
2022-08-30T03:59:04.227Z,100.00
2022-08-30T04:01:31.007Z,100.00
2022-08-30T04:03:57.720Z,100.00
2022-08-30T04:06:24.366Z,100.00
2022-08-30T04:08:52.018Z,100.00
2022-08-30T04:11:18.876Z,100.00
2022-08-30T04:13:45.496Z,100.00
2022-08-30T04:16:12.597Z,100.00
2022-08-30T04:18:39.284Z,100.00
2022-08-30T04:21:06.528Z,100.00
2022-08-30T04:23:33.506Z,100.00
2022-08-30T04:26:00.758Z,100.00
2022-08-30T04:28:27.387Z,100.00
2022-08-30T04:30:53.960Z,100.00
2022-08-30T04:33:21.094Z,100.00
2022-08-30T04:35:49.359Z,100.00
2022-08-30T04:38:17.334Z,100.00
2022-08-30T04:43:28.953Z,100.00
2022-08-30T04:45:57.955Z,100.00
2022-08-30T04:48:24.545Z,100.00
2022-08-30T04:50:51.099Z,100.00
2022-08-30T04:53:17.858Z,100.00
2022-08-30T04:55:44.549Z,100.00
2022-08-30T04:58:11.503Z,100.00
2022-08-30T05:00:38.355Z,100.00
2022-08-30T05:03:04.931Z,100.00
2022-08-30T05:08:46.696Z,100.00
2022-08-30T05:11:15.497Z,100.00
2022-08-30T05:13:42.102Z,100.00
2022-08-30T05:16:09.110Z,100.00
2022-08-30T05:18:37.118Z,100.00
2022-08-30T05:21:26.496Z,100.00
2022-08-30T05:24:00.939Z,100.00
2022-08-30T05:26:31.842Z,100.00
2022-08-30T05:29:19.071Z,100.00
2022-08-30T05:31:45.698Z,100.00
2022-08-30T05:34:12.259Z,100.00
2022-08-30T05:36:40.099Z,100.00
2022-08-30T05:39:09.111Z,100.00
2022-08-30T05:41:36.787Z,100.00
2022-08-30T05:44:05.193Z,100.00
2022-08-30T05:50:00.381Z,100.00
2022-08-30T05:52:27.311Z,100.00
2022-08-30T05:55:34.822Z,100.00
2022-08-30T05:58:01.901Z,100.00
2022-08-30T06:00:30.564Z,100.00
2022-08-30T06:02:57.385Z,100.00
2022-08-30T06:05:24.102Z,100.00
2022-08-30T06:07:50.970Z,100.00
2022-08-30T06:10:17.665Z,100.00
2022-08-30T06:12:44.316Z,100.00
2022-08-30T06:15:11.558Z,100.00
2022-08-30T06:17:39.707Z,100.00
2022-08-30T06:20:07.189Z,100.00
2022-08-30T06:22:33.811Z,100.00
2022-08-30T06:25:00.667Z,100.00
2022-08-30T06:27:27.252Z,100.00
2022-08-30T06:29:54.003Z,100.00
2022-08-30T06:32:20.774Z,100.00
2022-08-30T06:34:48.300Z,100.00
2022-08-30T06:37:29.881Z,100.00
2022-08-30T06:40:03.702Z,100.00
2022-08-30T06:42:33.426Z,100.00
2022-08-30T06:45:02.396Z,100.00
2022-08-30T06:47:29.888Z,100.00
2022-08-30T06:49:57.662Z,100.00
2022-08-30T06:52:24.508Z,100.00
2022-08-30T06:54:53.678Z,100.00
2022-08-30T06:57:20.223Z,100.00
2022-08-30T06:59:46.771Z,100.00
2022-08-30T07:02:13.330Z,100.00
2022-08-30T07:04:40.079Z,100.00
2022-08-30T07:07:06.732Z,100.00
2022-08-30T07:09:33.518Z,100.00
2022-08-30T07:12:06.669Z,100.00
2022-08-30T07:14:33.223Z,100.00
2022-08-30T07:16:59.805Z,100.00
2022-08-30T07:19:26.368Z,100.00
2022-08-30T07:21:52.962Z,100.00
2022-08-30T07:24:20.127Z,100.00
2022-08-30T07:30:01.157Z,100.00
2022-08-30T07:32:27.753Z,100.00
2022-08-30T07:34:55.489Z,100.00
2022-08-30T07:37:22.052Z,100.00
2022-08-30T07:39:48.588Z,100.00
2022-08-30T07:42:16.145Z,100.00
2022-08-30T07:44:43.743Z,100.00
2022-08-30T07:47:10.828Z,100.00
2022-08-30T07:49:37.901Z,100.00
2022-08-30T07:52:05.131Z,100.00
2022-08-30T07:54:35.086Z,100.00
2022-08-30T07:57:02.292Z,100.00
2022-08-30T07:59:31.794Z,100.00
2022-08-30T08:02:15.893Z,100.00
2022-08-30T08:04:43.939Z,100.00
2022-08-30T08:07:11.891Z,100.00
2022-08-30T08:09:38.973Z,100.00
2022-08-30T08:12:07.596Z,100.00
2022-08-30T08:14:34.382Z,100.00
2022-08-30T08:17:01.556Z,100.00
2022-08-30T08:19:28.484Z,100.00
2022-08-30T08:22:15.637Z,100.00
2022-08-30T08:24:44.160Z,100.00
2022-08-30T08:27:11.161Z,100.00
2022-08-30T08:29:37.750Z,100.00
2022-08-30T08:32:05.346Z,100.00
2022-08-30T08:34:32.307Z,100.00
2022-08-30T08:36:58.916Z,100.00
2022-08-30T08:39:25.580Z,100.00
2022-08-30T08:42:30.011Z,100.00
2022-08-30T08:45:21.243Z,100.00
2022-08-30T08:48:58.696Z,100.00
2022-08-30T08:55:29.795Z,100.00
2022-08-30T08:57:58.866Z,100.00
2022-08-30T09:00:25.561Z,100.00
2022-08-30T09:03:00.913Z,100.00
2022-08-30T09:08:18.530Z,100.00
2022-08-30T09:11:51.982Z,100.00
2022-08-30T09:14:36.268Z,100.00
2022-08-30T09:17:09.914Z,100.00
2022-08-30T09:19:41.333Z,100.00
2022-08-30T09:22:23.462Z,100.00
2022-08-30T09:27:36.135Z,100.00
2022-08-30T09:30:50.497Z,100.00
2022-08-30T09:36:26.938Z,100.00
2022-08-30T09:39:03.050Z,100.00
2022-08-30T09:45:49.832Z,100.00
2022-08-30T09:48:35.281Z,100.00
2022-08-30T09:51:11.143Z,100.00
2022-08-30T09:54:31.106Z,100.00
2022-08-30T09:57:38.202Z,100.00
2022-08-30T10:03:58.040Z,100.00
2022-08-30T10:06:55.515Z,100.00
2022-08-30T10:10:08.087Z,100.00
2022-08-30T10:13:06.077Z,100.00
2022-08-30T10:16:23.399Z,100.00
2022-08-30T10:19:29.780Z,100.00
2022-08-30T10:25:48.271Z,100.00
2022-08-30T10:29:02.132Z,100.00
2022-08-30T10:31:47.756Z,100.00
2022-08-30T10:34:55.770Z,100.00
2022-08-30T10:38:08.885Z,100.00
2022-08-30T10:44:06.007Z,100.00
2022-08-30T10:50:39.058Z,100.00
2022-08-30T10:54:18.930Z,100.00
2022-08-30T10:57:12.514Z,100.00
2022-08-30T11:07:57.705Z,100.00
2022-08-30T11:11:17.546Z,100.00
2022-08-30T11:13:45.782Z,100.00
2022-08-30T11:16:15.907Z,100.00
2022-08-30T11:19:02.798Z,100.00
2022-08-30T11:21:38.804Z,100.00
2022-08-30T11:25:02.417Z,100.00
2022-08-30T11:31:07.712Z,100.00
2022-08-30T11:33:59.214Z,100.00
2022-08-30T11:40:23.043Z,100.00
2022-08-30T11:43:29.782Z,100.00
2022-08-30T11:46:26.810Z,100.00
2022-08-30T11:49:02.471Z,100.00
2022-08-30T11:52:27.445Z,100.00
2022-08-30T11:55:40.092Z,100.00
2022-08-30T11:58:44.962Z,100.00
2022-08-30T12:01:40.784Z,100.00
2022-08-30T12:04:06.012Z,100.00
2022-08-30T12:07:52.084Z,100.00
2022-08-30T12:10:45.462Z,100.00
2022-08-30T12:14:02.918Z,100.00
2022-08-30T12:16:35.202Z,100.00
2022-08-30T12:19:52.887Z,100.00
2022-08-30T12:22:22.320Z,100.00
2022-08-30T12:24:52.157Z,100.00
2022-08-30T12:28:00.582Z,100.00
2022-08-30T12:30:43.914Z,100.00
2022-08-30T12:33:46.997Z,100.00
2022-08-30T12:36:50.007Z,100.00
2022-08-30T12:45:28.883Z,100.00
2022-08-30T12:47:58.704Z,100.00
2022-08-30T12:51:07.192Z,100.00
2022-08-30T12:54:45.378Z,100.00
2022-08-30T12:58:34.737Z,100.00
2022-08-30T13:01:16.265Z,100.00
2022-08-30T13:04:39.680Z,100.00
2022-08-30T13:07:06.642Z,100.00
2022-08-30T13:12:26.102Z,100.00
2022-08-30T13:15:18.577Z,100.00
2022-08-30T13:17:47.192Z,100.00
2022-08-30T13:20:16.528Z,100.00
2022-08-30T13:23:07.901Z,100.00
2022-08-30T13:25:38.201Z,100.00
2022-08-30T13:28:06.949Z,100.00
2022-08-30T13:30:34.352Z,100.00
2022-08-30T13:35:45.050Z,100.00
2022-08-30T13:38:11.672Z,100.00
2022-08-30T13:40:38.270Z,100.00
2022-08-30T13:43:04.941Z,100.00
2022-08-30T13:45:47.145Z,100.00
2022-08-30T13:48:25.059Z,100.00
2022-08-30T13:51:05.297Z,100.00
2022-08-30T13:56:19.553Z,100.00
2022-08-30T13:58:47.996Z,100.00
2022-08-30T14:01:14.663Z,100.00
2022-08-30T14:04:13.161Z,100.00
2022-08-30T14:06:33.915Z,100.00
2022-08-30T14:09:26.538Z,100.00
2022-08-30T14:11:53.125Z,100.00
2022-08-30T14:14:32.469Z,100.00
2022-08-30T14:17:06.693Z,100.00
2022-08-30T14:19:33.559Z,100.00
2022-08-30T14:22:00.132Z,100.00
2022-08-30T14:24:26.660Z,100.00
2022-08-30T14:26:53.299Z,100.00
2022-08-30T14:29:23.005Z,100.00
2022-08-30T14:32:10.298Z,88.97
2022-08-30T14:34:37.153Z,85.66
2022-08-30T14:37:06.704Z,88.57
2022-08-30T14:39:33.887Z,86.02
2022-08-30T14:42:03.511Z,80.65
2022-08-30T14:44:45.724Z,80.32
2022-08-30T14:47:17.750Z,77.48
2022-08-30T14:49:44.263Z,78.50
2022-08-30T14:52:10.838Z,77.66
2022-08-30T14:54:37.662Z,76.05
2022-08-30T14:57:04.368Z,80.13
2022-08-30T14:59:31.132Z,79.53
2022-08-30T15:01:57.898Z,79.14
2022-08-30T15:04:24.521Z,81.41
2022-08-30T15:06:52.095Z,78.07
2022-08-30T15:09:43.200Z,79.47
2022-08-30T15:12:09.961Z,78.94
2022-08-30T15:14:37.114Z,78.05
2022-08-30T15:17:05.538Z,74.93
2022-08-30T15:19:32.965Z,75.17
2022-08-30T15:22:02.585Z,74.37
2022-08-30T15:24:30.148Z,74.32
2022-08-30T15:26:59.534Z,79.39
2022-08-30T15:29:27.593Z,79.70
2022-08-30T15:32:14.186Z,80.69
2022-08-30T15:34:40.751Z,82.19
2022-08-30T15:37:07.873Z,80.10
2022-08-30T15:39:34.883Z,81.31
2022-08-30T15:42:02.142Z,82.45
2022-08-30T15:44:32.501Z,83.42
2022-08-30T15:47:05.206Z,74.20
2022-08-30T15:53:04.098Z,68.00
2022-08-30T15:56:24.699Z,67.51
2022-08-30T15:58:51.728Z,68.55
2022-08-30T16:01:30.423Z,69.93
2022-08-30T16:04:07.705Z,72.13
2022-08-30T16:06:37.599Z,73.52
2022-08-30T16:09:06.554Z,71.58
2022-08-30T16:11:34.154Z,68.58
2022-08-30T16:14:01.661Z,68.13
2022-08-30T16:16:28.531Z,72.50
2022-08-30T16:18:55.488Z,71.32
2022-08-30T16:21:48.086Z,69.68
2022-08-30T16:24:15.386Z,69.31
2022-08-30T16:26:43.462Z,67.13
2022-08-30T16:29:12.367Z,67.38
2022-08-30T16:31:44.482Z,67.47
2022-08-30T16:34:13.776Z,66.97
2022-08-30T16:36:40.465Z,66.04
2022-08-30T16:39:09.526Z,65.45
2022-08-30T16:41:37.678Z,64.39
2022-08-30T16:44:05.574Z,63.07
2022-08-30T16:46:34.064Z,61.47
2022-08-30T16:49:02.234Z,63.33
2022-08-30T16:51:30.617Z,63.39
2022-08-30T16:53:59.211Z,65.14
2022-08-30T16:56:27.340Z,63.21
2022-08-30T16:59:01.108Z,63.61
2022-08-30T17:01:44.753Z,61.95
2022-08-30T17:04:18.204Z,62.32
2022-08-30T17:07:01.334Z,62.10
2022-08-30T17:09:46.060Z,64.86
2022-08-30T17:12:13.538Z,63.04
2022-08-30T17:14:40.989Z,62.68
2022-08-30T17:17:27.505Z,61.85
2022-08-30T17:19:56.284Z,60.86
2022-08-30T17:22:22.826Z,60.58
2022-08-30T17:24:49.668Z,59.50
2022-08-30T17:27:16.514Z,60.44
2022-08-30T17:29:43.139Z,60.35
2022-08-30T17:32:09.794Z,60.51
2022-08-30T17:34:37.133Z,60.91
2022-08-30T17:37:04.121Z,59.51
2022-08-30T17:39:30.906Z,58.09
2022-08-30T17:41:58.428Z,55.77
2022-08-30T17:47:10.255Z,59.24
2022-08-30T17:49:36.864Z,58.96
2022-08-30T17:52:04.469Z,60.37
2022-08-30T17:54:33.348Z,63.00
2022-08-30T17:57:01.177Z,62.99
2022-08-30T17:59:29.306Z,64.58
2022-08-30T18:02:15.938Z,63.38
2022-08-30T18:05:03.158Z,65.02
2022-08-30T18:07:29.765Z,66.33
2022-08-30T18:09:57.643Z,66.45
2022-08-30T18:12:26.907Z,59.38
2022-08-30T18:14:54.203Z,58.27
2022-08-30T18:17:20.956Z,66.55
2022-08-30T18:19:47.589Z,69.17
2022-08-30T18:22:16.438Z,69.10
2022-08-30T18:24:43.353Z,59.15
2022-08-30T18:27:09.894Z,64.64
2022-08-30T18:29:38.009Z,66.30
2022-08-30T18:32:05.690Z,67.06
2022-08-30T18:34:51.878Z,68.89
2022-08-30T18:37:18.423Z,69.78
2022-08-30T18:39:45.705Z,71.38
2022-08-30T18:42:14.730Z,72.34
2022-08-30T18:44:43.632Z,73.79
2022-08-30T18:47:10.784Z,74.97
2022-08-30T18:49:37.799Z,74.97
2022-08-30T18:52:06.665Z,75.60
2022-08-30T18:55:12.046Z,76.80
2022-08-30T18:57:38.714Z,77.64
2022-08-30T19:00:05.965Z,78.15
2022-08-30T19:02:32.621Z,80.02
2022-08-30T19:04:59.299Z,80.33
2022-08-30T19:07:29.922Z,81.55
2022-08-30T19:10:16.444Z,82.23
2022-08-30T19:13:03.615Z,82.67
2022-08-30T19:15:34.207Z,85.28
2022-08-30T19:18:02.024Z,84.86
2022-08-30T19:20:50.382Z,88.04
2022-08-30T19:23:55.287Z,88.49
2022-08-30T19:26:22.056Z,87.64
2022-08-30T19:28:48.889Z,89.01
2022-08-30T19:31:15.522Z,91.25
2022-08-30T19:33:42.310Z,93.79
2022-08-30T19:36:08.967Z,90.83
2022-08-30T19:38:36.689Z,93.71
2022-08-30T19:41:04.626Z,97.14
2022-08-30T19:43:31.793Z,95.42
2022-08-30T19:45:59.996Z,96.67
2022-08-30T19:48:32.018Z,98.04
2022-08-30T19:51:15.659Z,100.00
2022-08-30T19:53:43.209Z,100.00
2022-08-30T19:56:10.166Z,100.00
2022-08-30T19:58:36.999Z,100.00
2022-08-30T20:01:10.806Z,100.00
2022-08-30T20:03:51.936Z,100.00
2022-08-30T20:06:20.513Z,100.00
2022-08-30T20:08:47.466Z,100.00
2022-08-30T20:11:19.733Z,100.00
2022-08-30T20:13:47.572Z,100.00
2022-08-30T20:16:15.070Z,100.00
2022-08-30T20:18:43.271Z,100.00
2022-08-30T20:21:13.445Z,100.00
2022-08-30T20:24:01.003Z,100.00
2022-08-30T20:26:33.753Z,100.00
2022-08-30T20:29:14.974Z,100.00
2022-08-30T20:31:41.553Z,100.00
2022-08-30T20:34:08.500Z,100.00
2022-08-30T20:36:35.022Z,100.00
2022-08-30T20:39:02.268Z,100.00
2022-08-30T20:41:32.073Z,100.00
2022-08-30T20:43:59.700Z,100.00
2022-08-30T20:46:28.565Z,100.00
2022-08-30T20:49:13.900Z,100.00
2022-08-30T20:51:41.156Z,100.00
2022-08-30T20:54:09.010Z,100.00
2022-08-30T20:56:36.104Z,100.00
2022-08-30T20:59:04.269Z,100.00
2022-08-30T21:02:01.477Z,100.00
2022-08-30T21:04:28.808Z,100.00
2022-08-30T21:06:55.311Z,100.00
2022-08-30T21:09:22.102Z,100.00
2022-08-30T21:11:48.818Z,100.00
2022-08-30T21:14:15.457Z,100.00
2022-08-30T21:16:42.130Z,100.00
2022-08-30T21:19:08.816Z,100.00
2022-08-30T21:21:35.451Z,100.00
2022-08-30T21:27:15.312Z,100.00
2022-08-30T21:29:42.106Z,100.00
2022-08-30T21:32:08.698Z,100.00
2022-08-30T21:37:45.596Z,100.00
2022-08-30T21:40:14.941Z,100.00
2022-08-30T21:42:41.996Z,100.00
2022-08-30T21:45:09.016Z,100.00
2022-08-30T21:47:35.676Z,100.00
2022-08-30T21:50:02.339Z,100.00
2022-08-30T21:52:28.877Z,100.00
2022-08-30T21:54:55.574Z,100.00
2022-08-30T21:57:22.158Z,100.00
2022-08-30T21:59:48.688Z,100.00
2022-08-30T22:02:15.230Z,100.00
2022-08-30T22:04:41.830Z,100.00
2022-08-30T22:07:08.529Z,100.00
2022-08-30T22:09:35.651Z,100.00
2022-08-30T22:14:46.499Z,100.00
2022-08-30T22:17:13.090Z,100.00
2022-08-30T22:19:39.623Z,100.00
2022-08-30T22:22:06.608Z,100.00
2022-08-30T22:24:33.204Z,100.00
2022-08-30T22:27:01.857Z,100.00
2022-08-30T22:29:29.288Z,100.00
2022-08-30T22:31:56.549Z,100.00
2022-08-30T22:34:23.135Z,100.00
2022-08-30T22:36:49.669Z,100.00
2022-08-30T22:39:16.295Z,100.00
2022-08-30T22:41:44.170Z,100.00
2022-08-30T22:44:11.962Z,100.00
2022-08-30T22:46:38.689Z,100.00
2022-08-30T22:49:06.963Z,100.00
2022-08-30T22:51:33.990Z,100.00
2022-08-30T22:54:02.027Z,100.00
2022-08-30T22:56:29.377Z,100.00
2022-08-30T22:58:56.543Z,100.00
2022-08-30T23:01:57.787Z,100.00
2022-08-30T23:04:24.575Z,100.00
2022-08-30T23:06:52.384Z,100.00
2022-08-30T23:09:18.986Z,100.00
2022-08-30T23:11:45.494Z,100.00
2022-08-30T23:14:12.050Z,100.00
2022-08-30T23:16:38.631Z,100.00
2022-08-30T23:19:05.586Z,100.00
2022-08-30T23:21:32.333Z,100.00
2022-08-30T23:24:24.512Z,100.00
2022-08-30T23:30:23.013Z,100.00
2022-08-30T23:46:04.070Z,100.00
2022-08-30T23:48:52.455Z,100.00
